sensor_id;sensor_type;location;lat;lon;timestamp;temperature;humidity
6357;DHT22;3211;53.452;-2.264;2023-05-17T00:00:57;11.10;99.90
6357;DHT22;3211;53.452;-2.264;2023-05-17T00:03:39;11.10;99.90
6357;DHT22;3211;53.452;-2.264;2023-05-17T00:06:21;11.10;99.90
6357;DHT22;3211;53.452;-2.264;2023-05-17T00:09:03;11.20;99.90
6357;DHT22;3211;53.452;-2.264;2023-05-17T00:11:45;11.10;99.90
6357;DHT22;3211;53.452;-2.264;2023-05-17T00:14:27;11.10;99.90
6357;DHT22;3211;53.452;-2.264;2023-05-17T00:17:10;11.10;99.90
6357;DHT22;3211;53.452;-2.264;2023-05-17T00:19:52;11.20;99.90
6357;DHT22;3211;53.452;-2.264;2023-05-17T00:22:34;11.20;99.90
6357;DHT22;3211;53.452;-2.264;2023-05-17T00:25:16;11.40;99.90
6357;DHT22;3211;53.452;-2.264;2023-05-17T00:27:58;11.40;99.90
6357;DHT22;3211;53.452;-2.264;2023-05-17T00:30:40;11.40;99.90
6357;DHT22;3211;53.452;-2.264;2023-05-17T00:33:24;11.40;99.90
6357;DHT22;3211;53.452;-2.264;2023-05-17T00:36:06;11.40;99.90
6357;DHT22;3211;53.452;-2.264;2023-05-17T00:38:48;11.40;99.90
6357;DHT22;3211;53.452;-2.264;2023-05-17T00:41:30;11.40;99.90
6357;DHT22;3211;53.452;-2.264;2023-05-17T00:44:11;11.40;99.90
6357;DHT22;3211;53.452;-2.264;2023-05-17T00:46:53;11.30;99.90
6357;DHT22;3211;53.452;-2.264;2023-05-17T00:49:37;11.30;99.90
6357;DHT22;3211;53.452;-2.264;2023-05-17T00:52:20;11.30;99.90
6357;DHT22;3211;53.452;-2.264;2023-05-17T00:55:02;11.30;99.90
6357;DHT22;3211;53.452;-2.264;2023-05-17T00:57:44;11.10;99.90
6357;DHT22;3211;53.452;-2.264;2023-05-17T01:00:26;11.20;99.90
6357;DHT22;3211;53.452;-2.264;2023-05-17T01:03:08;11.40;99.90
6357;DHT22;3211;53.452;-2.264;2023-05-17T01:05:52;11.40;99.90
6357;DHT22;3211;53.452;-2.264;2023-05-17T01:08:34;11.50;99.90
6357;DHT22;3211;53.452;-2.264;2023-05-17T01:11:22;11.50;99.90
6357;DHT22;3211;53.452;-2.264;2023-05-17T01:14:17;11.50;99.90
6357;DHT22;3211;53.452;-2.264;2023-05-17T01:17:09;11.50;99.90
6357;DHT22;3211;53.452;-2.264;2023-05-17T01:19:59;11.50;99.90
6357;DHT22;3211;53.452;-2.264;2023-05-17T01:22:51;11.50;99.90
6357;DHT22;3211;53.452;-2.264;2023-05-17T01:25:41;11.50;99.90
6357;DHT22;3211;53.452;-2.264;2023-05-17T01:28:32;11.60;99.90
6357;DHT22;3211;53.452;-2.264;2023-05-17T01:31:15;11.50;99.90
6357;DHT22;3211;53.452;-2.264;2023-05-17T01:33:57;11.50;99.90
6357;DHT22;3211;53.452;-2.264;2023-05-17T01:36:40;11.60;99.90
6357;DHT22;3211;53.452;-2.264;2023-05-17T01:39:23;11.70;99.90
6357;DHT22;3211;53.452;-2.264;2023-05-17T01:42:10;11.70;99.90
6357;DHT22;3211;53.452;-2.264;2023-05-17T01:44:59;11.70;99.90
6357;DHT22;3211;53.452;-2.264;2023-05-17T01:47:49;11.60;99.90
6357;DHT22;3211;53.452;-2.264;2023-05-17T01:50:33;11.70;99.90
6357;DHT22;3211;53.452;-2.264;2023-05-17T01:53:20;11.70;99.90
6357;DHT22;3211;53.452;-2.264;2023-05-17T01:56:03;11.70;99.90
6357;DHT22;3211;53.452;-2.264;2023-05-17T01:58:48;11.70;99.90
6357;DHT22;3211;53.452;-2.264;2023-05-17T02:01:34;11.70;99.90
6357;DHT22;3211;53.452;-2.264;2023-05-17T02:04:17;11.70;99.90
6357;DHT22;3211;53.452;-2.264;2023-05-17T02:06:59;11.70;99.90
6357;DHT22;3211;53.452;-2.264;2023-05-17T02:09:41;11.70;99.90
6357;DHT22;3211;53.452;-2.264;2023-05-17T02:12:23;11.70;99.90
6357;DHT22;3211;53.452;-2.264;2023-05-17T02:15:06;11.70;99.90
6357;DHT22;3211;53.452;-2.264;2023-05-17T02:17:52;11.80;99.90
6357;DHT22;3211;53.452;-2.264;2023-05-17T02:20:34;11.80;99.90
6357;DHT22;3211;53.452;-2.264;2023-05-17T02:23:16;11.70;99.90
6357;DHT22;3211;53.452;-2.264;2023-05-17T02:25:58;11.70;99.90
6357;DHT22;3211;53.452;-2.264;2023-05-17T02:28:40;11.60;99.90
6357;DHT22;3211;53.452;-2.264;2023-05-17T02:31:22;11.50;99.90
6357;DHT22;3211;53.452;-2.264;2023-05-17T02:34:05;11.50;99.90
6357;DHT22;3211;53.452;-2.264;2023-05-17T02:36:47;11.30;99.90
6357;DHT22;3211;53.452;-2.264;2023-05-17T02:39:31;11.30;99.90
6357;DHT22;3211;53.452;-2.264;2023-05-17T02:42:13;11.30;99.90
6357;DHT22;3211;53.452;-2.264;2023-05-17T02:44:55;11.30;99.90
6357;DHT22;3211;53.452;-2.264;2023-05-17T02:47:37;11.30;99.90
6357;DHT22;3211;53.452;-2.264;2023-05-17T02:50:20;11.30;99.90
6357;DHT22;3211;53.452;-2.264;2023-05-17T02:53:02;11.20;99.90
6357;DHT22;3211;53.452;-2.264;2023-05-17T02:55:44;11.10;99.90
6357;DHT22;3211;53.452;-2.264;2023-05-17T02:58:26;11.10;99.90
6357;DHT22;3211;53.452;-2.264;2023-05-17T03:01:08;11.10;99.90
6357;DHT22;3211;53.452;-2.264;2023-05-17T03:03:50;11.10;99.90
6357;DHT22;3211;53.452;-2.264;2023-05-17T03:06:33;11.10;99.90
6357;DHT22;3211;53.452;-2.264;2023-05-17T03:09:15;11.10;99.90
6357;DHT22;3211;53.452;-2.264;2023-05-17T03:11:57;11.20;99.90
6357;DHT22;3211;53.452;-2.264;2023-05-17T03:14:39;11.10;99.90
6357;DHT22;3211;53.452;-2.264;2023-05-17T03:17:21;11.20;99.90
6357;DHT22;3211;53.452;-2.264;2023-05-17T03:20:04;11.00;99.90
6357;DHT22;3211;53.452;-2.264;2023-05-17T03:22:48;11.00;99.90
6357;DHT22;3211;53.452;-2.264;2023-05-17T03:25:30;10.90;99.90
6357;DHT22;3211;53.452;-2.264;2023-05-17T03:28:12;10.70;99.90
6357;DHT22;3211;53.452;-2.264;2023-05-17T03:30:54;10.60;99.90
6357;DHT22;3211;53.452;-2.264;2023-05-17T03:33:36;10.60;99.90
6357;DHT22;3211;53.452;-2.264;2023-05-17T03:36:18;10.70;99.90
6357;DHT22;3211;53.452;-2.264;2023-05-17T03:39:01;10.80;99.90
6357;DHT22;3211;53.452;-2.264;2023-05-17T03:41:43;10.70;99.90
6357;DHT22;3211;53.452;-2.264;2023-05-17T03:44:25;10.70;99.90
6357;DHT22;3211;53.452;-2.264;2023-05-17T03:47:07;10.70;99.90
6357;DHT22;3211;53.452;-2.264;2023-05-17T03:49:49;10.70;99.90
6357;DHT22;3211;53.452;-2.264;2023-05-17T03:52:31;10.80;99.90
6357;DHT22;3211;53.452;-2.264;2023-05-17T03:55:14;10.80;99.90
6357;DHT22;3211;53.452;-2.264;2023-05-17T03:57:56;10.80;99.90
6357;DHT22;3211;53.452;-2.264;2023-05-17T04:00:38;10.90;99.90
6357;DHT22;3211;53.452;-2.264;2023-05-17T04:03:20;10.90;99.90
6357;DHT22;3211;53.452;-2.264;2023-05-17T04:06:03;10.90;99.90
6357;DHT22;3211;53.452;-2.264;2023-05-17T04:08:46;11.00;99.90
6357;DHT22;3211;53.452;-2.264;2023-05-17T04:11:30;11.10;99.90
6357;DHT22;3211;53.452;-2.264;2023-05-17T04:14:12;11.20;99.90
6357;DHT22;3211;53.452;-2.264;2023-05-17T04:16:54;11.20;99.90
6357;DHT22;3211;53.452;-2.264;2023-05-17T04:19:36;11.20;99.90
6357;DHT22;3211;53.452;-2.264;2023-05-17T04:22:19;11.20;99.90
6357;DHT22;3211;53.452;-2.264;2023-05-17T04:25:01;11.20;99.90
6357;DHT22;3211;53.452;-2.264;2023-05-17T04:27:44;11.30;99.90
6357;DHT22;3211;53.452;-2.264;2023-05-17T04:30:26;11.40;99.90
6357;DHT22;3211;53.452;-2.264;2023-05-17T04:33:08;11.40;99.90
6357;DHT22;3211;53.452;-2.264;2023-05-17T04:35:53;11.50;99.90
6357;DHT22;3211;53.452;-2.264;2023-05-17T04:38:36;11.50;99.90
6357;DHT22;3211;53.452;-2.264;2023-05-17T04:41:18;11.50;99.90
6357;DHT22;3211;53.452;-2.264;2023-05-17T04:44:01;11.50;99.90
6357;DHT22;3211;53.452;-2.264;2023-05-17T04:46:43;11.60;99.90
6357;DHT22;3211;53.452;-2.264;2023-05-17T04:49:25;11.60;99.90
6357;DHT22;3211;53.452;-2.264;2023-05-17T04:52:07;11.50;99.90
6357;DHT22;3211;53.452;-2.264;2023-05-17T04:54:49;11.50;99.90
6357;DHT22;3211;53.452;-2.264;2023-05-17T04:57:32;11.40;99.90
6357;DHT22;3211;53.452;-2.264;2023-05-17T05:00:16;11.50;99.90
6357;DHT22;3211;53.452;-2.264;2023-05-17T05:03:00;11.50;99.90
6357;DHT22;3211;53.452;-2.264;2023-05-17T05:05:44;11.50;99.90
6357;DHT22;3211;53.452;-2.264;2023-05-17T05:08:27;11.50;99.90
6357;DHT22;3211;53.452;-2.264;2023-05-17T05:11:09;11.50;99.90
6357;DHT22;3211;53.452;-2.264;2023-05-17T05:13:51;11.40;99.90
6357;DHT22;3211;53.452;-2.264;2023-05-17T05:16:34;11.40;99.90
6357;DHT22;3211;53.452;-2.264;2023-05-17T05:19:16;11.50;99.90
6357;DHT22;3211;53.452;-2.264;2023-05-17T05:21:59;11.60;99.90
6357;DHT22;3211;53.452;-2.264;2023-05-17T05:24:41;11.50;99.90
6357;DHT22;3211;53.452;-2.264;2023-05-17T05:27:23;11.60;99.90
6357;DHT22;3211;53.452;-2.264;2023-05-17T05:30:06;11.70;99.90
6357;DHT22;3211;53.452;-2.264;2023-05-17T05:32:49;11.40;99.90
6357;DHT22;3211;53.452;-2.264;2023-05-17T05:35:32;11.50;99.90
6357;DHT22;3211;53.452;-2.264;2023-05-17T05:38:14;11.50;99.90
6357;DHT22;3211;53.452;-2.264;2023-05-17T05:40:55;11.60;99.90
6357;DHT22;3211;53.452;-2.264;2023-05-17T05:43:37;11.30;99.90
6357;DHT22;3211;53.452;-2.264;2023-05-17T05:46:19;11.20;99.90
6357;DHT22;3211;53.452;-2.264;2023-05-17T05:49:03;11.20;99.90
6357;DHT22;3211;53.452;-2.264;2023-05-17T05:51:44;11.50;99.90
6357;DHT22;3211;53.452;-2.264;2023-05-17T05:54:26;11.60;99.90
6357;DHT22;3211;53.452;-2.264;2023-05-17T05:57:08;11.70;99.90
6357;DHT22;3211;53.452;-2.264;2023-05-17T05:59:50;11.60;99.90
6357;DHT22;3211;53.452;-2.264;2023-05-17T06:02:32;11.80;99.90
6357;DHT22;3211;53.452;-2.264;2023-05-17T06:05:16;11.90;99.90
6357;DHT22;3211;53.452;-2.264;2023-05-17T06:07:58;12.00;99.90
6357;DHT22;3211;53.452;-2.264;2023-05-17T06:10:40;12.10;99.90
6357;DHT22;3211;53.452;-2.264;2023-05-17T06:13:21;12.10;99.90
6357;DHT22;3211;53.452;-2.264;2023-05-17T06:16:04;12.20;99.90
6357;DHT22;3211;53.452;-2.264;2023-05-17T06:18:46;12.10;99.90
6357;DHT22;3211;53.452;-2.264;2023-05-17T06:21:30;12.20;99.90
6357;DHT22;3211;53.452;-2.264;2023-05-17T06:24:12;12.20;99.90
6357;DHT22;3211;53.452;-2.264;2023-05-17T06:26:54;12.20;99.90
6357;DHT22;3211;53.452;-2.264;2023-05-17T06:29:36;12.20;99.90
6357;DHT22;3211;53.452;-2.264;2023-05-17T06:32:18;12.30;99.90
6357;DHT22;3211;53.452;-2.264;2023-05-17T06:35:00;12.20;99.90
6357;DHT22;3211;53.452;-2.264;2023-05-17T06:37:43;12.40;99.90
6357;DHT22;3211;53.452;-2.264;2023-05-17T06:40:25;12.30;99.90
6357;DHT22;3211;53.452;-2.264;2023-05-17T06:43:07;12.40;99.90
6357;DHT22;3211;53.452;-2.264;2023-05-17T06:45:49;12.50;99.90
6357;DHT22;3211;53.452;-2.264;2023-05-17T06:48:31;12.50;99.90
6357;DHT22;3211;53.452;-2.264;2023-05-17T06:51:13;12.50;99.90
6357;DHT22;3211;53.452;-2.264;2023-05-17T06:53:57;12.50;99.90
6357;DHT22;3211;53.452;-2.264;2023-05-17T06:56:39;12.70;99.90
6357;DHT22;3211;53.452;-2.264;2023-05-17T06:59:21;12.70;99.90
6357;DHT22;3211;53.452;-2.264;2023-05-17T07:02:03;12.70;99.90
6357;DHT22;3211;53.452;-2.264;2023-05-17T07:04:49;12.70;99.90
6357;DHT22;3211;53.452;-2.264;2023-05-17T07:07:35;12.50;99.90
6357;DHT22;3211;53.452;-2.264;2023-05-17T07:10:18;12.70;99.90
6357;DHT22;3211;53.452;-2.264;2023-05-17T07:13:00;12.70;99.90
6357;DHT22;3211;53.452;-2.264;2023-05-17T07:15:42;12.70;99.90
6357;DHT22;3211;53.452;-2.264;2023-05-17T07:18:24;12.80;99.90
6357;DHT22;3211;53.452;-2.264;2023-05-17T07:21:06;12.80;99.90
6357;DHT22;3211;53.452;-2.264;2023-05-17T07:23:48;12.70;99.90
6357;DHT22;3211;53.452;-2.264;2023-05-17T07:26:32;12.70;99.90
6357;DHT22;3211;53.452;-2.264;2023-05-17T07:29:14;12.80;99.90
6357;DHT22;3211;53.452;-2.264;2023-05-17T07:31:55;12.80;99.90
6357;DHT22;3211;53.452;-2.264;2023-05-17T07:34:37;12.90;99.90
6357;DHT22;3211;53.452;-2.264;2023-05-17T07:37:19;13.00;99.90
6357;DHT22;3211;53.452;-2.264;2023-05-17T07:40:01;13.00;99.90
6357;DHT22;3211;53.452;-2.264;2023-05-17T07:42:46;13.20;99.90
6357;DHT22;3211;53.452;-2.264;2023-05-17T07:45:28;13.30;99.90
6357;DHT22;3211;53.452;-2.264;2023-05-17T07:48:10;13.30;99.90
6357;DHT22;3211;53.452;-2.264;2023-05-17T07:50:52;13.50;99.90
6357;DHT22;3211;53.452;-2.264;2023-05-17T07:53:34;13.50;99.90
6357;DHT22;3211;53.452;-2.264;2023-05-17T07:56:16;13.60;99.90
6357;DHT22;3211;53.452;-2.264;2023-05-17T07:58:59;13.50;99.90
6357;DHT22;3211;53.452;-2.264;2023-05-17T08:01:41;13.50;99.90
6357;DHT22;3211;53.452;-2.264;2023-05-17T08:04:23;13.40;99.90
6357;DHT22;3211;53.452;-2.264;2023-05-17T08:07:05;13.50;99.90
6357;DHT22;3211;53.452;-2.264;2023-05-17T08:09:47;13.60;99.90
6357;DHT22;3211;53.452;-2.264;2023-05-17T08:12:29;13.80;99.90
6357;DHT22;3211;53.452;-2.264;2023-05-17T08:15:13;13.90;99.90
6357;DHT22;3211;53.452;-2.264;2023-05-17T08:17:55;14.00;99.90
6357;DHT22;3211;53.452;-2.264;2023-05-17T08:20:37;14.20;99.90
6357;DHT22;3211;53.452;-2.264;2023-05-17T08:23:19;14.30;99.90
6357;DHT22;3211;53.452;-2.264;2023-05-17T08:26:01;14.20;99.90
6357;DHT22;3211;53.452;-2.264;2023-05-17T08:28:43;14.00;99.90
6357;DHT22;3211;53.452;-2.264;2023-05-17T08:31:27;14.30;99.90
6357;DHT22;3211;53.452;-2.264;2023-05-17T08:34:09;14.40;99.90
6357;DHT22;3211;53.452;-2.264;2023-05-17T08:36:51;14.70;99.90
6357;DHT22;3211;53.452;-2.264;2023-05-17T08:39:33;14.90;99.90
6357;DHT22;3211;53.452;-2.264;2023-05-17T08:42:16;15.00;99.90
6357;DHT22;3211;53.452;-2.264;2023-05-17T08:45:00;14.50;99.90
6357;DHT22;3211;53.452;-2.264;2023-05-17T08:47:44;14.30;99.90
6357;DHT22;3211;53.452;-2.264;2023-05-17T08:50:27;14.20;99.90
6357;DHT22;3211;53.452;-2.264;2023-05-17T08:53:11;14.20;99.90
6357;DHT22;3211;53.452;-2.264;2023-05-17T08:55:57;14.10;99.90
6357;DHT22;3211;53.452;-2.264;2023-05-17T08:58:42;14.30;99.90
6357;DHT22;3211;53.452;-2.264;2023-05-17T09:01:24;14.10;99.90
6357;DHT22;3211;53.452;-2.264;2023-05-17T09:04:08;14.20;99.90
6357;DHT22;3211;53.452;-2.264;2023-05-17T09:06:51;14.20;99.90
6357;DHT22;3211;53.452;-2.264;2023-05-17T09:09:33;14.30;99.90
6357;DHT22;3211;53.452;-2.264;2023-05-17T09:12:15;14.40;99.90
6357;DHT22;3211;53.452;-2.264;2023-05-17T09:15:11;14.30;99.90
6357;DHT22;3211;53.452;-2.264;2023-05-17T09:17:53;14.40;99.90
6357;DHT22;3211;53.452;-2.264;2023-05-17T09:20:38;14.50;99.90
6357;DHT22;3211;53.452;-2.264;2023-05-17T09:23:20;14.80;99.90
6357;DHT22;3211;53.452;-2.264;2023-05-17T09:26:03;15.00;99.90
6357;DHT22;3211;53.452;-2.264;2023-05-17T09:28:45;15.10;99.90
6357;DHT22;3211;53.452;-2.264;2023-05-17T09:31:27;15.40;92.90
6357;DHT22;3211;53.452;-2.264;2023-05-17T09:34:10;15.40;72.60
6357;DHT22;3211;53.452;-2.264;2023-05-17T09:36:53;15.50;65.70
6357;DHT22;3211;53.452;-2.264;2023-05-17T09:39:35;15.80;79.30
6357;DHT22;3211;53.452;-2.264;2023-05-17T09:42:17;16.00;51.40
6357;DHT22;3211;53.452;-2.264;2023-05-17T09:45:00;15.60;49.50
6357;DHT22;3211;53.452;-2.264;2023-05-17T09:47:42;15.80;51.60
6357;DHT22;3211;53.452;-2.264;2023-05-17T09:50:24;16.00;45.90
6357;DHT22;3211;53.452;-2.264;2023-05-17T09:53:21;15.70;35.70
6357;DHT22;3211;53.452;-2.264;2023-05-17T09:56:04;15.70;32.20
6357;DHT22;3211;53.452;-2.264;2023-05-17T09:58:48;15.50;28.70
6357;DHT22;3211;53.452;-2.264;2023-05-17T10:01:31;15.60;39.20
6357;DHT22;3211;53.452;-2.264;2023-05-17T10:04:13;15.60;38.40
6357;DHT22;3211;53.452;-2.264;2023-05-17T10:07:00;15.60;35.40
6357;DHT22;3211;53.452;-2.264;2023-05-17T10:09:44;16.00;32.50
6357;DHT22;3211;53.452;-2.264;2023-05-17T10:12:27;16.10;22.50
6357;DHT22;3211;53.452;-2.264;2023-05-17T10:15:11;16.50;53.50
6357;DHT22;3211;53.452;-2.264;2023-05-17T10:17:56;16.90;13.80
6357;DHT22;3211;53.452;-2.264;2023-05-17T10:20:38;16.80;6.10
6357;DHT22;3211;53.452;-2.264;2023-05-17T10:23:21;16.90;21.60
6357;DHT22;3211;53.452;-2.264;2023-05-17T10:26:05;17.00;22.30
6357;DHT22;3211;53.452;-2.264;2023-05-17T10:28:48;17.00;6.60
6357;DHT22;3211;53.452;-2.264;2023-05-17T10:31:33;17.00;1.00
6357;DHT22;3211;53.452;-2.264;2023-05-17T10:34:17;16.70;1.00
6357;DHT22;3211;53.452;-2.264;2023-05-17T10:37:00;16.60;1.00
6357;DHT22;3211;53.452;-2.264;2023-05-17T10:39:42;16.90;5.30
6357;DHT22;3211;53.452;-2.264;2023-05-17T10:42:27;16.90;1.00
6357;DHT22;3211;53.452;-2.264;2023-05-17T10:45:12;16.80;1.00
6357;DHT22;3211;53.452;-2.264;2023-05-17T10:47:54;16.70;1.00
6357;DHT22;3211;53.452;-2.264;2023-05-17T10:50:37;16.60;1.00
6357;DHT22;3211;53.452;-2.264;2023-05-17T10:53:19;16.70;1.00
6357;DHT22;3211;53.452;-2.264;2023-05-17T10:56:01;16.30;1.00
6357;DHT22;3211;53.452;-2.264;2023-05-17T10:58:45;16.30;3.60
6357;DHT22;3211;53.452;-2.264;2023-05-17T11:01:52;16.50;5.00
6357;DHT22;3211;53.452;-2.264;2023-05-17T11:04:37;16.70;1.00
6357;DHT22;3211;53.452;-2.264;2023-05-17T11:07:26;16.80;1.00
6357;DHT22;3211;53.452;-2.264;2023-05-17T11:10:12;16.80;1.00
6357;DHT22;3211;53.452;-2.264;2023-05-17T11:12:55;16.80;1.00
6357;DHT22;3211;53.452;-2.264;2023-05-17T11:15:38;17.20;1.00
6357;DHT22;3211;53.452;-2.264;2023-05-17T11:18:22;17.30;1.00
6357;DHT22;3211;53.452;-2.264;2023-05-17T11:21:07;17.20;1.00
6357;DHT22;3211;53.452;-2.264;2023-05-17T11:23:56;17.00;1.00
6357;DHT22;3211;53.452;-2.264;2023-05-17T11:26:44;16.70;1.00
6357;DHT22;3211;53.452;-2.264;2023-05-17T11:29:28;16.60;1.00
6357;DHT22;3211;53.452;-2.264;2023-05-17T11:32:11;16.50;1.00
6357;DHT22;3211;53.452;-2.264;2023-05-17T11:34:53;16.40;1.00
6357;DHT22;3211;53.452;-2.264;2023-05-17T11:37:35;16.40;22.40
6357;DHT22;3211;53.452;-2.264;2023-05-17T11:40:24;16.30;8.00
6357;DHT22;3211;53.452;-2.264;2023-05-17T11:43:14;16.30;14.40
6357;DHT22;3211;53.452;-2.264;2023-05-17T11:45:58;16.30;20.50
6357;DHT22;3211;53.452;-2.264;2023-05-17T11:48:43;16.40;26.40
6357;DHT22;3211;53.452;-2.264;2023-05-17T11:51:26;16.40;38.70
6357;DHT22;3211;53.452;-2.264;2023-05-17T11:54:08;16.40;25.60
6357;DHT22;3211;53.452;-2.264;2023-05-17T11:56:54;16.30;18.50
6357;DHT22;3211;53.452;-2.264;2023-05-17T11:59:37;16.50;22.50
6357;DHT22;3211;53.452;-2.264;2023-05-17T12:02:27;16.60;7.30
6357;DHT22;3211;53.452;-2.264;2023-05-17T12:05:10;16.40;5.40
6357;DHT22;3211;53.452;-2.264;2023-05-17T12:07:52;16.50;16.50
6357;DHT22;3211;53.452;-2.264;2023-05-17T12:10:34;16.30;12.10
6357;DHT22;3211;53.452;-2.264;2023-05-17T12:13:16;16.30;18.80
6357;DHT22;3211;53.452;-2.264;2023-05-17T12:16:00;16.40;20.60
6357;DHT22;3211;53.452;-2.264;2023-05-17T12:18:46;16.20;15.40
6357;DHT22;3211;53.452;-2.264;2023-05-17T12:21:29;16.20;7.00
6357;DHT22;3211;53.452;-2.264;2023-05-17T12:24:11;16.30;13.40
6357;DHT22;3211;53.452;-2.264;2023-05-17T12:26:53;16.20;12.70
6357;DHT22;3211;53.452;-2.264;2023-05-17T12:29:36;16.20;26.80
6357;DHT22;3211;53.452;-2.264;2023-05-17T12:32:19;16.20;22.90
6357;DHT22;3211;53.452;-2.264;2023-05-17T12:35:01;16.30;19.40
6357;DHT22;3211;53.452;-2.264;2023-05-17T12:37:45;16.30;16.10
6357;DHT22;3211;53.452;-2.264;2023-05-17T12:40:27;16.30;15.90
6357;DHT22;3211;53.452;-2.264;2023-05-17T12:43:09;16.40;16.20
6357;DHT22;3211;53.452;-2.264;2023-05-17T12:45:51;16.40;9.10
6357;DHT22;3211;53.452;-2.264;2023-05-17T12:48:35;16.60;2.40
6357;DHT22;3211;53.452;-2.264;2023-05-17T12:51:18;16.60;1.00
6357;DHT22;3211;53.452;-2.264;2023-05-17T12:54:03;16.80;1.00
6357;DHT22;3211;53.452;-2.264;2023-05-17T12:56:45;17.00;1.00
6357;DHT22;3211;53.452;-2.264;2023-05-17T12:59:27;16.90;1.00
6357;DHT22;3211;53.452;-2.264;2023-05-17T13:02:09;17.00;1.00
6357;DHT22;3211;53.452;-2.264;2023-05-17T13:04:51;17.10;1.00
6357;DHT22;3211;53.452;-2.264;2023-05-17T13:07:33;16.80;1.00
6357;DHT22;3211;53.452;-2.264;2023-05-17T13:10:21;16.90;6.10
6357;DHT22;3211;53.452;-2.264;2023-05-17T13:13:03;16.90;3.10
6357;DHT22;3211;53.452;-2.264;2023-05-17T13:15:47;16.80;1.00
6357;DHT22;3211;53.452;-2.264;2023-05-17T13:18:29;16.70;2.60
6357;DHT22;3211;53.452;-2.264;2023-05-17T13:21:16;16.70;1.00
6357;DHT22;3211;53.452;-2.264;2023-05-17T13:23:58;16.80;1.00
6357;DHT22;3211;53.452;-2.264;2023-05-17T13:26:42;17.00;1.70
6357;DHT22;3211;53.452;-2.264;2023-05-17T13:29:24;17.10;7.10
6357;DHT22;3211;53.452;-2.264;2023-05-17T13:32:06;17.40;1.80
6357;DHT22;3211;53.452;-2.264;2023-05-17T13:34:49;17.60;1.00
6357;DHT22;3211;53.452;-2.264;2023-05-17T13:37:31;17.60;1.00
6357;DHT22;3211;53.452;-2.264;2023-05-17T13:40:13;17.70;1.00
6357;DHT22;3211;53.452;-2.264;2023-05-17T13:42:57;17.80;1.00
6357;DHT22;3211;53.452;-2.264;2023-05-17T13:45:39;18.10;1.00
6357;DHT22;3211;53.452;-2.264;2023-05-17T13:48:21;18.20;1.00
6357;DHT22;3211;53.452;-2.264;2023-05-17T13:51:03;18.10;1.00
6357;DHT22;3211;53.452;-2.264;2023-05-17T13:53:45;18.40;1.00
6357;DHT22;3211;53.452;-2.264;2023-05-17T13:56:27;18.40;1.00
6357;DHT22;3211;53.452;-2.264;2023-05-17T13:59:10;18.60;1.00
6357;DHT22;3211;53.452;-2.264;2023-05-17T14:01:52;18.80;1.00
6357;DHT22;3211;53.452;-2.264;2023-05-17T14:04:34;19.30;1.00
6357;DHT22;3211;53.452;-2.264;2023-05-17T14:07:16;19.70;1.00
6357;DHT22;3211;53.452;-2.264;2023-05-17T14:09:58;20.40;1.00
6357;DHT22;3211;53.452;-2.264;2023-05-17T14:12:40;20.60;1.00
6357;DHT22;3211;53.452;-2.264;2023-05-17T14:15:24;20.60;1.00
6357;DHT22;3211;53.452;-2.264;2023-05-17T14:18:08;20.10;1.00
6357;DHT22;3211;53.452;-2.264;2023-05-17T14:20:50;19.40;1.00
6357;DHT22;3211;53.452;-2.264;2023-05-17T14:23:33;19.90;1.00
6357;DHT22;3211;53.452;-2.264;2023-05-17T14:26:15;20.80;1.00
6357;DHT22;3211;53.452;-2.264;2023-05-17T14:28:57;20.40;1.00
6357;DHT22;3211;53.452;-2.264;2023-05-17T14:31:41;19.40;1.00
6357;DHT22;3211;53.452;-2.264;2023-05-17T14:34:22;18.90;1.00
6357;DHT22;3211;53.452;-2.264;2023-05-17T14:37:05;19.10;1.00
6357;DHT22;3211;53.452;-2.264;2023-05-17T14:39:47;19.30;1.00
6357;DHT22;3211;53.452;-2.264;2023-05-17T14:42:29;20.60;1.00
6357;DHT22;3211;53.452;-2.264;2023-05-17T14:45:11;21.90;1.00
6357;DHT22;3211;53.452;-2.264;2023-05-17T14:47:54;21.40;1.00
6357;DHT22;3211;53.452;-2.264;2023-05-17T14:50:36;21.90;1.00
6357;DHT22;3211;53.452;-2.264;2023-05-17T14:53:21;23.20;1.00
6357;DHT22;3211;53.452;-2.264;2023-05-17T14:56:08;24.40;1.00
6357;DHT22;3211;53.452;-2.264;2023-05-17T14:58:50;24.40;99.90
6357;DHT22;3211;53.452;-2.264;2023-05-17T15:01:38;23.40;99.90
6357;DHT22;3211;53.452;-2.264;2023-05-17T15:04:29;21.80;1.00
6357;DHT22;3211;53.452;-2.264;2023-05-17T15:07:11;20.60;1.00
6357;DHT22;3211;53.452;-2.264;2023-05-17T15:09:53;20.40;1.00
6357;DHT22;3211;53.452;-2.264;2023-05-17T15:12:35;20.70;1.00
6357;DHT22;3211;53.452;-2.264;2023-05-17T15:15:17;20.40;1.00
6357;DHT22;3211;53.452;-2.264;2023-05-17T15:18:01;20.20;1.00
6357;DHT22;3211;53.452;-2.264;2023-05-17T15:20:44;20.60;1.00
6357;DHT22;3211;53.452;-2.264;2023-05-17T15:23:27;20.90;1.00
6357;DHT22;3211;53.452;-2.264;2023-05-17T15:26:09;20.50;1.00
6357;DHT22;3211;53.452;-2.264;2023-05-17T15:28:51;20.00;1.00
6357;DHT22;3211;53.452;-2.264;2023-05-17T15:31:33;20.40;1.00
6357;DHT22;3211;53.452;-2.264;2023-05-17T15:34:15;20.00;1.00
6357;DHT22;3211;53.452;-2.264;2023-05-17T15:36:58;20.40;1.00
6357;DHT22;3211;53.452;-2.264;2023-05-17T15:39:40;20.60;1.00
6357;DHT22;3211;53.452;-2.264;2023-05-17T15:42:22;20.60;1.00
6357;DHT22;3211;53.452;-2.264;2023-05-17T15:45:06;20.60;1.00
6357;DHT22;3211;53.452;-2.264;2023-05-17T15:47:48;20.70;1.00
6357;DHT22;3211;53.452;-2.264;2023-05-17T15:50:30;20.80;1.00
6357;DHT22;3211;53.452;-2.264;2023-05-17T15:53:13;20.40;1.00
6357;DHT22;3211;53.452;-2.264;2023-05-17T15:55:55;20.60;1.00
6357;DHT22;3211;53.452;-2.264;2023-05-17T15:58:37;21.30;1.00
6357;DHT22;3211;53.452;-2.264;2023-05-17T16:01:19;21.20;1.00
6357;DHT22;3211;53.452;-2.264;2023-05-17T16:04:01;20.30;1.00
6357;DHT22;3211;53.452;-2.264;2023-05-17T16:06:43;20.50;1.00
6357;DHT22;3211;53.452;-2.264;2023-05-17T16:09:27;20.90;1.00
6357;DHT22;3211;53.452;-2.264;2023-05-17T16:12:09;20.70;1.00
6357;DHT22;3211;53.452;-2.264;2023-05-17T16:14:51;20.50;1.00
6357;DHT22;3211;53.452;-2.264;2023-05-17T16:17:33;19.90;1.00
6357;DHT22;3211;53.452;-2.264;2023-05-17T16:20:15;20.00;1.00
6357;DHT22;3211;53.452;-2.264;2023-05-17T16:22:57;19.80;1.00
6357;DHT22;3211;53.452;-2.264;2023-05-17T16:25:41;19.90;1.00
6357;DHT22;3211;53.452;-2.264;2023-05-17T16:28:23;19.50;1.00
6357;DHT22;3211;53.452;-2.264;2023-05-17T16:31:05;19.50;1.00
6357;DHT22;3211;53.452;-2.264;2023-05-17T16:33:47;19.20;1.00
6357;DHT22;3211;53.452;-2.264;2023-05-17T16:36:29;19.30;1.00
6357;DHT22;3211;53.452;-2.264;2023-05-17T16:39:11;19.20;1.00
6357;DHT22;3211;53.452;-2.264;2023-05-17T16:41:55;19.30;1.00
6357;DHT22;3211;53.452;-2.264;2023-05-17T16:44:37;18.90;1.00
6357;DHT22;3211;53.452;-2.264;2023-05-17T16:47:19;18.60;1.00
6357;DHT22;3211;53.452;-2.264;2023-05-17T16:50:03;18.50;1.00
6357;DHT22;3211;53.452;-2.264;2023-05-17T16:52:45;18.50;1.00
6357;DHT22;3211;53.452;-2.264;2023-05-17T16:55:27;18.30;1.00
6357;DHT22;3211;53.452;-2.264;2023-05-17T16:58:10;18.50;1.00
6357;DHT22;3211;53.452;-2.264;2023-05-17T17:00:52;18.30;1.00
6357;DHT22;3211;53.452;-2.264;2023-05-17T17:03:35;18.40;1.00
6357;DHT22;3211;53.452;-2.264;2023-05-17T17:06:17;18.40;1.00
6357;DHT22;3211;53.452;-2.264;2023-05-17T17:08:59;18.20;1.00
6357;DHT22;3211;53.452;-2.264;2023-05-17T17:11:44;17.80;1.00
6357;DHT22;3211;53.452;-2.264;2023-05-17T17:14:27;17.80;1.00
6357;DHT22;3211;53.452;-2.264;2023-05-17T17:17:10;17.70;1.00
6357;DHT22;3211;53.452;-2.264;2023-05-17T17:19:52;17.80;1.00
6357;DHT22;3211;53.452;-2.264;2023-05-17T17:22:34;17.70;1.00
6357;DHT22;3211;53.452;-2.264;2023-05-17T17:25:16;17.40;1.00
6357;DHT22;3211;53.452;-2.264;2023-05-17T17:27:58;17.60;1.00
6357;DHT22;3211;53.452;-2.264;2023-05-17T17:30:41;17.40;1.00
6357;DHT22;3211;53.452;-2.264;2023-05-17T17:33:23;17.30;1.00